sensor_id;sensor_type;location;lat;lon;timestamp;P1;durP1;ratioP1;P2;durP2;ratioP2
42884;SDS011;28534;48.100;11.584;2022-11-25T04:00:44;3.28;;;2.97;;
42884;SDS011;28534;48.100;11.584;2022-11-25T04:05:45;3.08;;;2.83;;
42884;SDS011;28534;48.100;11.584;2022-11-25T04:10:47;3.42;;;3.13;;
42884;SDS011;28534;48.100;11.584;2022-11-25T04:15:51;3.05;;;2.80;;
42884;SDS011;28534;48.100;11.584;2022-11-25T04:20:53;3.38;;;3.08;;
42884;SDS011;28534;48.100;11.584;2022-11-25T04:26:00;3.20;;;2.90;;
42884;SDS011;28534;48.100;11.584;2022-11-25T04:31:05;3.30;;;3.00;;
42884;SDS011;28534;48.100;11.584;2022-11-25T04:36:08;3.22;;;3.00;;
42884;SDS011;28534;48.100;11.584;2022-11-25T04:41:10;5.47;;;3.08;;
42884;SDS011;28534;48.100;11.584;2022-11-25T04:46:14;3.22;;;2.75;;
42884;SDS011;28534;48.100;11.584;2022-11-25T04:51:17;4.38;;;3.10;;
42884;SDS011;28534;48.100;11.584;2022-11-25T04:56:19;3.53;;;3.00;;
42884;SDS011;28534;48.100;11.584;2022-11-25T05:01:23;5.18;;;2.70;;
42884;SDS011;28534;48.100;11.584;2022-11-25T05:06:24;6.63;;;3.28;;
42884;SDS011;28534;48.100;11.584;2022-11-25T05:11:26;5.53;;;3.30;;
42884;SDS011;28534;48.100;11.584;2022-11-25T05:16:29;12.18;;;3.63;;
42884;SDS011;28534;48.100;11.584;2022-11-25T05:21:31;6.75;;;3.20;;
42884;SDS011;28534;48.100;11.584;2022-11-25T05:26:33;9.95;;;3.40;;
42884;SDS011;28534;48.100;11.584;2022-11-25T05:31:36;13.38;;;3.10;;
42884;SDS011;28534;48.100;11.584;2022-11-25T05:36:38;12.52;;;3.30;;
42884;SDS011;28534;48.100;11.584;2022-11-25T05:41:40;10.07;;;3.15;;
42884;SDS011;28534;48.100;11.584;2022-11-25T05:46:44;12.73;;;3.38;;
42884;SDS011;28534;48.100;11.584;2022-11-25T05:51:47;11.45;;;3.05;;
42884;SDS011;28534;48.100;11.584;2022-11-25T05:56:49;9.70;;;2.95;;
42884;SDS011;28534;48.100;11.584;2022-11-25T06:01:52;5.90;;;2.92;;
42884;SDS011;28534;48.100;11.584;2022-11-25T06:06:55;10.07;;;3.20;;
42884;SDS011;28534;48.100;11.584;2022-11-25T06:11:57;10.52;;;3.50;;
42884;SDS011;28534;48.100;11.584;2022-11-25T06:17:00;8.95;;;2.97;;
42884;SDS011;28534;48.100;11.584;2022-11-25T06:22:03;8.82;;;2.70;;
42884;SDS011;28534;48.100;11.584;2022-11-25T06:27:05;6.35;;;2.08;;
42884;SDS011;28534;48.100;11.584;2022-11-25T06:32:08;5.10;;;1.83;;
42884;SDS011;28534;48.100;11.584;2022-11-25T06:37:10;7.13;;;2.42;;
42884;SDS011;28534;48.100;11.584;2022-11-25T06:42:12;11.95;;;2.40;;
42884;SDS011;28534;48.100;11.584;2022-11-25T06:47:15;10.57;;;2.28;;
42884;SDS011;28534;48.100;11.584;2022-11-25T06:52:17;4.95;;;2.10;;
42884;SDS011;28534;48.100;11.584;2022-11-25T06:57:19;11.07;;;2.47;;
42884;SDS011;28534;48.100;11.584;2022-11-25T07:02:22;10.27;;;2.65;;
42884;SDS011;28534;48.100;11.584;2022-11-25T07:07:24;4.35;;;1.88;;
42884;SDS011;28534;48.100;11.584;2022-11-25T07:12:25;8.35;;;1.92;;
42884;SDS011;28534;48.100;11.584;2022-11-25T07:17:28;6.55;;;2.03;;
42884;SDS011;28534;48.100;11.584;2022-11-25T07:22:30;7.85;;;2.30;;
42884;SDS011;28534;48.100;11.584;2022-11-25T07:27:32;5.60;;;2.10;;
42884;SDS011;28534;48.100;11.584;2022-11-25T07:32:35;8.43;;;1.90;;
42884;SDS011;28534;48.100;11.584;2022-11-25T07:37:37;7.80;;;1.85;;
42884;SDS011;28534;48.100;11.584;2022-11-25T07:42:38;4.68;;;1.88;;
42884;SDS011;28534;48.100;11.584;2022-11-25T07:47:41;9.98;;;2.20;;
42884;SDS011;28534;48.100;11.584;2022-11-25T07:52:43;8.05;;;2.30;;
42884;SDS011;28534;48.100;11.584;2022-11-25T07:57:45;5.88;;;2.15;;
42884;SDS011;28534;48.100;11.584;2022-11-25T08:02:48;9.27;;;2.05;;
42884;SDS011;28534;48.100;11.584;2022-11-25T08:07:51;7.20;;;2.03;;
42884;SDS011;28534;48.100;11.584;2022-11-25T08:12:53;12.02;;;2.28;;
42884;SDS011;28534;48.100;11.584;2022-11-25T08:17:56;7.65;;;2.10;;
42884;SDS011;28534;48.100;11.584;2022-11-25T08:22:58;7.72;;;2.15;;
42884;SDS011;28534;48.100;11.584;2022-11-25T08:28:00;9.07;;;1.90;;
42884;SDS011;28534;48.100;11.584;2022-11-25T08:33:03;6.20;;;2.08;;
42884;SDS011;28534;48.100;11.584;2022-11-25T08:38:07;7.88;;;2.50;;
42884;SDS011;28534;48.100;11.584;2022-11-25T08:43:09;2.67;;;1.50;;
42884;SDS011;28534;48.100;11.584;2022-11-25T08:48:12;1.95;;;1.50;;
42884;SDS011;28534;48.100;11.584;2022-11-25T08:53:15;1.75;;;1.40;;
42884;SDS011;28534;48.100;11.584;2022-11-25T08:58:17;4.15;;;1.60;;
42884;SDS011;28534;48.100;11.584;2022-11-25T09:03:21;4.15;;;1.40;;
42884;SDS011;28534;48.100;11.584;2022-11-25T09:08:22;3.33;;;1.30;;
42884;SDS011;28534;48.100;11.584;2022-11-25T09:13:25;2.50;;;1.40;;
42884;SDS011;28534;48.100;11.584;2022-11-25T09:18:28;2.72;;;1.30;;
42884;SDS011;28534;48.100;11.584;2022-11-25T09:23:31;3.40;;;1.45;;
42884;SDS011;28534;48.100;11.584;2022-11-25T09:28:33;1.98;;;1.33;;
42884;SDS011;28534;48.100;11.584;2022-11-25T09:33:37;4.30;;;1.23;;
42884;SDS011;28534;48.100;11.584;2022-11-25T09:38:38;3.78;;;1.42;;
42884;SDS011;28534;48.100;11.584;2022-11-25T09:43:44;7.38;;;1.70;;
42884;SDS011;28534;48.100;11.584;2022-11-25T09:49:13;5.57;;;1.40;;
42884;SDS011;28534;48.100;11.584;2022-11-25T09:54:31;7.85;;;2.00;;
42884;SDS011;28534;48.100;11.584;2022-11-25T09:59:38;5.95;;;1.67;;
42884;SDS011;28534;48.100;11.584;2022-11-25T10:04:48;6.07;;;1.50;;
42884;SDS011;28534;48.100;11.584;2022-11-25T10:09:53;6.00;;;1.77;;
42884;SDS011;28534;48.100;11.584;2022-11-25T10:14:58;7.15;;;1.70;;
42884;SDS011;28534;48.100;11.584;2022-11-25T10:20:04;4.72;;;1.50;;
42884;SDS011;28534;48.100;11.584;2022-11-25T10:25:14;3.83;;;1.42;;
42884;SDS011;28534;48.100;11.584;2022-11-25T10:30:18;10.98;;;2.00;;
42884;SDS011;28534;48.100;11.584;2022-11-25T10:35:26;9.25;;;2.03;;
42884;SDS011;28534;48.100;11.584;2022-11-25T10:40:31;6.20;;;1.80;;
42884;SDS011;28534;48.100;11.584;2022-11-25T10:45:35;9.43;;;2.00;;
42884;SDS011;28534;48.100;11.584;2022-11-25T10:50:50;7.80;;;2.58;;
42884;SDS011;28534;48.100;11.584;2022-11-25T10:56:03;10.15;;;2.70;;
42884;SDS011;28534;48.100;11.584;2022-11-25T11:01:15;8.52;;;2.80;;
42884;SDS011;28534;48.100;11.584;2022-11-25T11:06:34;6.47;;;2.20;;
42884;SDS011;28534;48.100;11.584;2022-11-25T11:11:45;8.98;;;2.25;;
42884;SDS011;28534;48.100;11.584;2022-11-25T11:16:50;5.75;;;2.17;;
42884;SDS011;28534;48.100;11.584;2022-11-25T11:21:55;7.63;;;2.50;;
42884;SDS011;28534;48.100;11.584;2022-11-25T11:27:01;7.70;;;2.15;;
42884;SDS011;28534;48.100;11.584;2022-11-25T11:32:06;10.70;;;2.17;;
42884;SDS011;28534;48.100;11.584;2022-11-25T11:37:31;5.45;;;2.00;;
42884;SDS011;28534;48.100;11.584;2022-11-25T11:42:41;5.55;;;2.10;;
42884;SDS011;28534;48.100;11.584;2022-11-25T11:47:56;6.63;;;1.70;;
42884;SDS011;28534;48.100;11.584;2022-11-25T11:53:08;9.73;;;2.08;;
42884;SDS011;28534;48.100;11.584;2022-11-25T11:58:13;7.30;;;2.00;;
42884;SDS011;28534;48.100;11.584;2022-11-25T12:03:24;6.28;;;2.00;;
42884;SDS011;28534;48.100;11.584;2022-11-25T12:08:32;6.22;;;1.90;;
42884;SDS011;28534;48.100;11.584;2022-11-25T12:13:47;6.13;;;1.90;;
42884;SDS011;28534;48.100;11.584;2022-11-25T12:18:58;4.38;;;1.13;;
42884;SDS011;28534;48.100;11.584;2022-11-25T12:24:09;5.20;;;1.77;;
42884;SDS011;28534;48.100;11.584;2022-11-25T12:29:19;7.18;;;1.60;;
42884;SDS011;28534;48.100;11.584;2022-11-25T12:34:29;3.03;;;1.70;;
42884;SDS011;28534;48.100;11.584;2022-11-25T12:39:38;5.80;;;1.75;;
42884;SDS011;28534;48.100;11.584;2022-11-25T12:44:48;5.47;;;1.80;;
42884;SDS011;28534;48.100;11.584;2022-11-25T12:49:58;7.57;;;1.92;;
42884;SDS011;28534;48.100;11.584;2022-11-25T12:55:05;10.20;;;1.60;;
42884;SDS011;28534;48.100;11.584;2022-11-25T13:00:11;9.00;;;2.00;;
42884;SDS011;28534;48.100;11.584;2022-11-25T13:05:32;10.15;;;1.90;;
42884;SDS011;28534;48.100;11.584;2022-11-25T13:16:20;6.93;;;1.92;;
42884;SDS011;28534;48.100;11.584;2022-11-25T13:21:24;8.05;;;2.22;;
42884;SDS011;28534;48.100;11.584;2022-11-25T13:31:55;12.32;;;2.40;;
42884;SDS011;28534;48.100;11.584;2022-11-25T13:36:59;11.60;;;2.63;;
42884;SDS011;28534;48.100;11.584;2022-11-25T13:42:09;10.60;;;2.40;;
42884;SDS011;28534;48.100;11.584;2022-11-25T13:47:27;13.30;;;2.30;;
42884;SDS011;28534;48.100;11.584;2022-11-25T13:52:35;8.85;;;2.30;;
42884;SDS011;28534;48.100;11.584;2022-11-25T13:57:41;10.18;;;2.08;;
42884;SDS011;28534;48.100;11.584;2022-11-25T14:02:45;8.02;;;2.30;;
42884;SDS011;28534;48.100;11.584;2022-11-25T14:07:50;7.50;;;2.30;;
42884;SDS011;28534;48.100;11.584;2022-11-25T14:13:13;6.57;;;2.05;;
42884;SDS011;28534;48.100;11.584;2022-11-25T14:18:30;6.75;;;1.90;;
42884;SDS011;28534;48.100;11.584;2022-11-25T14:23:45;8.13;;;1.90;;
42884;SDS011;28534;48.100;11.584;2022-11-25T14:28:59;7.68;;;2.17;;
42884;SDS011;28534;48.100;11.584;2022-11-25T14:34:04;7.03;;;1.80;;
42884;SDS011;28534;48.100;11.584;2022-11-25T14:39:14;5.55;;;1.60;;
42884;SDS011;28534;48.100;11.584;2022-11-25T14:44:21;11.43;;;2.15;;
42884;SDS011;28534;48.100;11.584;2022-11-25T14:49:39;7.90;;;2.20;;
42884;SDS011;28534;48.100;11.584;2022-11-25T14:54:44;6.55;;;1.83;;
42884;SDS011;28534;48.100;11.584;2022-11-25T14:59:48;6.22;;;1.80;;
42884;SDS011;28534;48.100;11.584;2022-11-25T15:04:50;14.73;;;2.72;;
42884;SDS011;28534;48.100;11.584;2022-11-25T15:09:52;12.40;;;2.80;;
42884;SDS011;28534;48.100;11.584;2022-11-25T15:14:55;8.52;;;2.15;;
42884;SDS011;28534;48.100;11.584;2022-11-25T15:19:58;5.82;;;2.00;;
42884;SDS011;28534;48.100;11.584;2022-11-25T15:25:05;8.50;;;2.20;;
42884;SDS011;28534;48.100;11.584;2022-11-25T15:30:17;6.65;;;2.08;;
42884;SDS011;28534;48.100;11.584;2022-11-25T15:35:21;10.85;;;2.33;;
42884;SDS011;28534;48.100;11.584;2022-11-25T15:40:29;8.25;;;2.20;;
42884;SDS011;28534;48.100;11.584;2022-11-25T15:45:41;6.50;;;1.88;;
42884;SDS011;28534;48.100;11.584;2022-11-25T15:50:44;9.05;;;2.30;;
42884;SDS011;28534;48.100;11.584;2022-11-25T15:55:46;12.13;;;2.35;;
42884;SDS011;28534;48.100;11.584;2022-11-25T16:01:02;23.13;;;10.13;;
42884;SDS011;28534;48.100;11.584;2022-11-25T16:06:16;62.95;;;47.35;;
42884;SDS011;28534;48.100;11.584;2022-11-25T16:11:21;78.20;;;63.95;;
42884;SDS011;28534;48.100;11.584;2022-11-25T16:16:26;78.70;;;64.82;;
42884;SDS011;28534;48.100;11.584;2022-11-25T16:21:36;74.00;;;61.30;;
42884;SDS011;28534;48.100;11.584;2022-11-25T16:26:47;74.90;;;58.30;;
42884;SDS011;28534;48.100;11.584;2022-11-25T16:31:52;70.22;;;56.10;;
42884;SDS011;28534;48.100;11.584;2022-11-25T16:36:54;48.53;;;39.88;;
42884;SDS011;28534;48.100;11.584;2022-11-25T16:41:57;40.53;;;29.73;;
42884;SDS011;28534;48.100;11.584;2022-11-25T16:47:04;37.25;;;27.75;;
42884;SDS011;28534;48.100;11.584;2022-11-25T16:52:09;36.22;;;26.33;;
42884;SDS011;28534;48.100;11.584;2022-11-25T16:57:12;31.40;;;21.23;;
42884;SDS011;28534;48.100;11.584;2022-11-25T17:02:20;19.65;;;14.63;;
42884;SDS011;28534;48.100;11.584;2022-11-25T17:07:22;15.82;;;9.95;;
42884;SDS011;28534;48.100;11.584;2022-11-25T17:12:25;14.27;;;7.38;;
42884;SDS011;28534;48.100;11.584;2022-11-25T17:17:32;13.65;;;6.20;;
42884;SDS011;28534;48.100;11.584;2022-11-25T17:22:34;10.43;;;6.35;;
42884;SDS011;28534;48.100;11.584;2022-11-25T17:27:36;13.23;;;6.07;;
42884;SDS011;28534;48.100;11.584;2022-11-25T17:32:39;11.35;;;5.30;;
42884;SDS011;28534;48.100;11.584;2022-11-25T17:37:41;12.10;;;5.20;;
42884;SDS011;28534;48.100;11.584;2022-11-25T17:42:43;17.65;;;5.13;;
42884;SDS011;28534;48.100;11.584;2022-11-25T17:47:48;13.55;;;4.72;;
42884;SDS011;28534;48.100;11.584;2022-11-25T17:52:50;10.75;;;4.47;;
42884;SDS011;28534;48.100;11.584;2022-11-25T17:57:52;15.23;;;4.82;;
42884;SDS011;28534;48.100;11.584;2022-11-25T18:02:56;15.05;;;4.60;;
42884;SDS011;28534;48.100;11.584;2022-11-25T18:07:58;11.18;;;4.68;;
42884;SDS011;28534;48.100;11.584;2022-11-25T18:13:00;13.50;;;4.30;;
42884;SDS011;28534;48.100;11.584;2022-11-25T18:18:05;10.77;;;4.22;;
42884;SDS011;28534;48.100;11.584;2022-11-25T18:23:16;9.25;;;4.30;;
42884;SDS011;28534;48.100;11.584;2022-11-25T18:28:19;11.77;;;4.15;;
42884;SDS011;28534;48.100;11.584;2022-11-25T18:33:24;9.23;;;4.18;;
42884;SDS011;28534;48.100;11.584;2022-11-25T18:38:26;9.18;;;4.10;;
42884;SDS011;28534;48.100;11.584;2022-11-25T18:43:28;7.47;;;5.25;;
42884;SDS011;28534;48.100;11.584;2022-11-25T18:48:35;8.07;;;4.97;;
42884;SDS011;28534;48.100;11.584;2022-11-25T18:53:37;8.63;;;4.50;;
42884;SDS011;28534;48.100;11.584;2022-11-25T18:58:39;5.82;;;3.90;;
42884;SDS011;28534;48.100;11.584;2022-11-25T19:03:43;5.10;;;3.42;;
42884;SDS011;28534;48.100;11.584;2022-11-25T19:08:44;4.88;;;3.53;;
42884;SDS011;28534;48.100;11.584;2022-11-25T19:13:46;12.30;;;3.88;;
42884;SDS011;28534;48.100;11.584;2022-11-25T19:18:53;7.53;;;3.80;;
42884;SDS011;28534;48.100;11.584;2022-11-25T19:23:55;6.18;;;3.72;;
42884;SDS011;28534;48.100;11.584;2022-11-25T19:28:58;7.07;;;3.40;;
42884;SDS011;28534;48.100;11.584;2022-11-25T19:34:05;5.32;;;3.55;;
42884;SDS011;28534;48.100;11.584;2022-11-25T19:39:08;5.55;;;3.20;;
42884;SDS011;28534;48.100;11.584;2022-11-25T19:44:16;6.18;;;3.35;;
42884;SDS011;28534;48.100;11.584;2022-11-25T19:49:19;4.25;;;2.80;;
42884;SDS011;28534;48.100;11.584;2022-11-25T19:54:22;6.07;;;3.13;;
42884;SDS011;28534;48.100;11.584;2022-11-25T19:59:24;4.88;;;2.70;;
42884;SDS011;28534;48.100;11.584;2022-11-25T20:04:27;5.85;;;3.05;;
42884;SDS011;28534;48.100;11.584;2022-11-25T20:09:29;6.53;;;3.10;;
42884;SDS011;28534;48.100;11.584;2022-11-25T20:14:31;4.47;;;2.75;;
42884;SDS011;28534;48.100;11.584;2022-11-25T20:19:35;4.38;;;2.67;;
42884;SDS011;28534;48.100;11.584;2022-11-25T20:24:37;4.45;;;2.72;;
42884;SDS011;28534;48.100;11.584;2022-11-25T20:29:38;5.00;;;2.78;;
42884;SDS011;28534;48.100;11.584;2022-11-25T20:34:41;4.40;;;3.00;;
42884;SDS011;28534;48.100;11.584;2022-11-25T20:39:43;4.57;;;2.70;;
42884;SDS011;28534;48.100;11.584;2022-11-25T20:44:45;5.88;;;2.47;;
42884;SDS011;28534;48.100;11.584;2022-11-25T20:49:48;5.93;;;3.00;;
42884;SDS011;28534;48.100;11.584;2022-11-25T20:54:50;21.25;;;2.70;;
42884;SDS011;28534;48.100;11.584;2022-11-25T20:59:52;4.50;;;2.67;;
42884;SDS011;28534;48.100;11.584;2022-11-25T21:04:55;6.10;;;2.45;;
42884;SDS011;28534;48.100;11.584;2022-11-25T21:09:57;5.13;;;2.78;;
42884;SDS011;28534;48.100;11.584;2022-11-25T21:14:59;5.43;;;2.63;;
42884;SDS011;28534;48.100;11.584;2022-11-25T21:20:02;4.55;;;2.72;;
42884;SDS011;28534;48.100;11.584;2022-11-25T21:25:05;5.13;;;2.70;;
42884;SDS011;28534;48.100;11.584;2022-11-25T21:30:15;3.83;;;2.50;;
42884;SDS011;28534;48.100;11.584;2022-11-25T21:35:19;4.20;;;2.60;;
42884;SDS011;28534;48.100;11.584;2022-11-25T21:40:32;4.45;;;2.60;;
42884;SDS011;28534;48.100;11.584;2022-11-25T21:45:37;3.97;;;2.65;;
42884;SDS011;28534;48.100;11.584;2022-11-25T21:50:40;4.45;;;2.55;;
42884;SDS011;28534;48.100;11.584;2022-11-25T21:55:41;4.55;;;2.53;;
